Time,TemperatureF,DewpointF,PressureIn,WindDirection,WindDirectionDegrees,WindSpeedMPH,WindSpeedGustMPH,Humidity,HourlyPrecipIn,Conditions,Clouds,dailyrainin,SoftwareType,DateUTC
2013-09-08 00:10:00,53.9,53.0,30.11,NE,55,0.0,-999.0,95,-99.99,,,0.00,weatherlink.com 1.10,2013-09-08 04:10:00,
2013-09-08 00:25:00,53.9,53.0,30.11,NE,55,0.0,-999.0,95,-99.99,,,0.00,weatherlink.com 1.10,2013-09-08 04:25:00,
2013-09-08 00:40:00,53.7,52.0,30.11,NE,55,0.0,-999.0,95,-99.99,,,0.00,weatherlink.com 1.10,2013-09-08 04:40:00,
2013-09-08 00:55:00,53.6,52.0,30.11,NE,55,0.0,-999.0,95,-99.99,,,0.00,weatherlink.com 1.10,2013-09-08 04:55:00,
2013-09-08 01:09:00,53.4,52.0,30.12,NE,55,0.0,-999.0,95,-99.99,,,0.00,weatherlink.com 1.10,2013-09-08 05:09:00,
2013-09-08 01:25:00,53.1,52.0,30.12,NE,55,0.0,-999.0,95,-99.99,,,0.00,weatherlink.com 1.10,2013-09-08 05:25:00,
2013-09-08 01:40:00,52.7,51.0,30.13,NE,55,0.0,-999.0,95,-99.99,,,0.00,weatherlink.com 1.10,2013-09-08 05:40:00,
2013-09-08 01:55:00,52.6,51.0,30.13,NE,55,0.0,-999.0,95,-99.99,,,0.00,weatherlink.com 1.10,2013-09-08 05:55:00,
2013-09-08 02:10:00,52.5,51.0,30.12,NE,55,0.0,-999.0,95,-99.99,,,0.00,weatherlink.com 1.10,2013-09-08 06:10:00,
2013-09-08 02:25:00,52.3,51.0,30.12,NE,55,0.0,-999.0,95,-99.99,,,0.00,weatherlink.com 1.10,2013-09-08 06:25:00,
2013-09-08 02:40:00,52.1,51.0,30.12,NE,55,0.0,-999.0,95,-99.99,,,0.00,weatherlink.com 1.10,2013-09-08 06:40:00,
2013-09-08 02:55:00,51.8,51.0,30.13,NE,55,0.0,-999.0,95,-99.99,,,0.00,weatherlink.com 1.10,2013-09-08 06:55:00,
2013-09-08 03:10:00,51.7,50.0,30.14,NE,55,0.0,-999.0,95,-99.99,,,0.00,weatherlink.com 1.10,2013-09-08 07:10:00,
2013-09-08 03:25:00,51.6,50.0,30.14,NE,55,0.0,-999.0,95,-99.99,,,0.00,weatherlink.com 1.10,2013-09-08 07:25:00,
2013-09-08 03:40:00,51.6,50.0,30.15,NE,55,0.0,-999.0,95,-99.99,,,0.00,weatherlink.com 1.10,2013-09-08 07:40:00,
2013-09-08 03:55:00,51.9,51.0,30.14,NE,55,0.0,-999.0,95,-99.99,,,0.00,weatherlink.com 1.10,2013-09-08 07:55:00,
2013-09-08 04:10:00,51.7,50.0,30.14,NE,55,0.0,-999.0,95,-99.99,,,0.00,weatherlink.com 1.10,2013-09-08 08:10:00,
2013-09-08 04:24:00,51.5,50.0,30.14,NE,55,0.0,-999.0,95,-99.99,,,0.00,weatherlink.com 1.10,2013-09-08 08:24:00,
2013-09-08 04:39:00,51.3,50.0,30.14,NE,55,0.0,-999.0,95,-99.99,,,0.00,weatherlink.com 1.10,2013-09-08 08:39:00,
2013-09-08 04:54:00,51.1,50.0,30.16,NE,55,0.0,-999.0,95,-99.99,,,0.00,weatherlink.com 1.10,2013-09-08 08:54:00,
2013-09-08 05:09:00,50.9,50.0,30.16,NE,55,0.0,-999.0,95,-99.99,,,0.00,weatherlink.com 1.10,2013-09-08 09:09:00,
2013-09-08 05:24:00,50.7,49.0,30.16,NE,55,0.0,-999.0,95,-99.99,,,0.01,weatherlink.com 1.10,2013-09-08 09:24:00,
2013-09-08 05:39:00,50.6,49.0,30.16,NE,55,0.0,-999.0,95,-99.99,,,0.01,weatherlink.com 1.10,2013-09-08 09:39:00,
2013-09-08 05:54:00,50.8,50.0,30.16,NE,55,0.0,-999.0,96,-99.99,,,0.01,weatherlink.com 1.10,2013-09-08 09:54:00,
2013-09-08 06:09:00,51.0,50.0,30.17,NE,55,0.0,-999.0,96,-99.99,,,0.01,weatherlink.com 1.10,2013-09-08 10:09:00,
2013-09-08 06:24:00,51.4,50.0,30.17,NE,55,0.0,-999.0,96,-99.99,,,0.01,weatherlink.com 1.10,2013-09-08 10:24:00,
2013-09-08 06:39:00,51.9,51.0,30.18,NE,55,0.0,-999.0,96,-99.99,,,0.01,weatherlink.com 1.10,2013-09-08 10:39:00,
2013-09-08 06:54:00,52.7,52.0,30.18,NE,55,0.0,-999.0,96,-99.99,,,0.01,weatherlink.com 1.10,2013-09-08 10:54:00,
2013-09-08 07:09:00,53.3,52.0,30.18,NE,55,0.0,-999.0,96,-99.99,,,0.01,weatherlink.com 1.10,2013-09-08 11:09:00,
2013-09-08 07:24:00,53.9,53.0,30.18,NE,55,0.0,-999.0,96,-99.99,,,0.01,weatherlink.com 1.10,2013-09-08 11:24:00,
2013-09-08 07:39:00,54.4,53.0,30.19,NE,55,0.0,-999.0,96,-99.99,,,0.01,weatherlink.com 1.10,2013-09-08 11:39:00,
2013-09-08 07:54:00,54.9,54.0,30.19,ENE,74,0.0,-999.0,96,-99.99,,,0.01,weatherlink.com 1.10,2013-09-08 11:54:00,
2013-09-08 08:09:00,55.2,54.0,30.20,SSW,213,0.0,-999.0,95,-99.99,,,0.01,weatherlink.com 1.10,2013-09-08 12:09:00,
2013-09-08 08:24:00,55.9,54.0,30.20,ESE,107,0.0,-999.0,93,-99.99,,,0.01,weatherlink.com 1.10,2013-09-08 12:24:00,
2013-09-08 08:39:00,56.5,54.0,30.20,SSW,198,0.0,-999.0,92,-99.99,,,0.01,weatherlink.com 1.10,2013-09-08 12:39:00,
2013-09-08 08:54:00,57.0,55.0,30.20,NNE,33,0.0,-999.0,91,-99.99,,,0.01,weatherlink.com 1.10,2013-09-08 12:54:00,
2013-09-08 09:09:00,57.3,55.0,30.19,ESE,105,0.0,-999.0,90,-99.99,,,0.01,weatherlink.com 1.10,2013-09-08 13:09:00,
2013-09-08 09:24:00,57.7,55.0,30.19,WSW,252,0.0,-999.0,89,-99.99,,,0.01,weatherlink.com 1.10,2013-09-08 13:24:00,
2013-09-08 09:39:00,58.4,55.0,30.19,NE,40,0.0,-999.0,88,-99.99,,,0.01,weatherlink.com 1.10,2013-09-08 13:39:00,
2013-09-08 09:54:00,58.7,55.0,30.19,NE,44,0.0,-999.0,86,-99.99,,,0.01,weatherlink.com 1.10,2013-09-08 13:54:00,
2013-09-08 10:09:00,58.7,54.0,30.19,NE,47,0.0,-999.0,85,-99.99,,,0.01,weatherlink.com 1.10,2013-09-08 14:09:00,
2013-09-08 10:24:00,59.0,55.0,30.19,NE,42,0.0,-999.0,85,-99.99,,,0.01,weatherlink.com 1.10,2013-09-08 14:24:00,
2013-09-08 10:39:00,59.3,54.0,30.19,NNE,15,0.0,-999.0,83,-99.99,,,0.01,weatherlink.com 1.10,2013-09-08 14:39:00,
2013-09-08 10:54:00,59.7,54.0,30.19,SW,228,0.0,-999.0,82,-99.99,,,0.01,weatherlink.com 1.10,2013-09-08 14:54:00,
2013-09-08 11:09:00,60.6,54.0,30.19,NE,55,0.0,-999.0,80,-99.99,,,0.01,weatherlink.com 1.10,2013-09-08 15:09:00,
2013-09-08 11:24:00,61.7,55.0,30.18,SW,229,0.0,-999.0,79,-99.99,,,0.01,weatherlink.com 1.10,2013-09-08 15:24:00,
2013-09-08 11:39:00,62.0,55.0,30.19,ENE,59,0.0,-999.0,78,-99.99,,,0.01,weatherlink.com 1.10,2013-09-08 15:39:00,
2013-09-08 11:54:00,61.4,55.0,30.19,NNE,20,2.0,-999.0,79,-99.99,,,0.01,weatherlink.com 1.10,2013-09-08 15:54:00,
2013-09-08 12:09:00,62.0,55.0,30.19,ENE,65,2.0,-999.0,78,-99.99,,,0.01,weatherlink.com 1.10,2013-09-08 16:09:00,
2013-09-08 12:24:00,62.4,55.0,30.19,NE,49,0.0,-999.0,76,-99.99,,,0.01,weatherlink.com 1.10,2013-09-08 16:24:00,
2013-09-08 12:39:00,62.2,55.0,30.18,NNE,24,1.0,-999.0,78,-99.99,,,0.01,weatherlink.com 1.10,2013-09-08 16:39:00,
2013-09-08 12:54:00,62.8,56.0,30.17,ENE,73,0.0,-999.0,78,-99.99,,,0.01,weatherlink.com 1.10,2013-09-08 16:54:00,
2013-09-08 13:09:00,63.2,56.0,30.16,NE,42,1.0,-999.0,76,-99.99,,,0.01,weatherlink.com 1.10,2013-09-08 17:09:00,
2013-09-08 13:24:00,62.6,56.0,30.16,NE,40,0.0,-999.0,78,-99.99,,,0.01,weatherlink.com 1.10,2013-09-08 17:24:00,
2013-09-08 13:39:00,62.7,56.0,30.15,NE,51,0.0,-999.0,79,-99.99,,,0.01,weatherlink.com 1.10,2013-09-08 17:39:00,
2013-09-08 13:54:00,62.7,55.0,30.16,East,83,2.0,-999.0,77,-99.99,,,0.01,weatherlink.com 1.10,2013-09-08 17:54:00,
2013-09-08 14:09:00,62.3,56.0,30.16,NNE,32,3.0,-999.0,80,-99.99,,,0.01,weatherlink.com 1.10,2013-09-08 18:09:00,
2013-09-08 14:24:00,62.1,56.0,30.16,NE,44,0.0,-999.0,80,-99.99,,,0.01,weatherlink.com 1.10,2013-09-08 18:24:00,
2013-09-08 14:39:00,62.1,57.0,30.16,NE,41,2.0,-999.0,82,-99.99,,,0.01,weatherlink.com 1.10,2013-09-08 18:39:00,
2013-09-08 14:54:00,62.7,57.0,30.16,NE,37,0.0,-999.0,81,-99.99,,,0.01,weatherlink.com 1.10,2013-09-08 18:54:00,
2013-09-08 15:09:00,62.9,57.0,30.15,NE,41,1.0,-999.0,80,-99.99,,,0.01,weatherlink.com 1.10,2013-09-08 19:09:00,
2013-09-08 15:24:00,62.5,56.0,30.14,NE,52,3.0,-999.0,80,-99.99,,,0.01,weatherlink.com 1.10,2013-09-08 19:24:00,
2013-09-08 15:39:00,62.7,56.0,30.13,East,79,2.0,-999.0,80,-99.99,,,0.01,weatherlink.com 1.10,2013-09-08 19:39:00,
2013-09-08 15:54:00,62.2,56.0,30.12,North,5,2.0,-999.0,81,-99.99,,,0.01,weatherlink.com 1.10,2013-09-08 19:54:00,
2013-09-08 16:09:00,61.4,56.0,30.12,East,99,0.0,-999.0,83,-99.99,,,0.01,weatherlink.com 1.10,2013-09-08 20:09:00,
2013-09-08 16:24:00,61.0,56.0,30.11,NE,34,2.0,-999.0,84,-99.99,,,0.01,weatherlink.com 1.10,2013-09-08 20:24:00,
2013-09-08 16:39:00,60.7,56.0,30.11,NNE,28,1.0,-999.0,85,-99.99,,,0.01,weatherlink.com 1.10,2013-09-08 20:39:00,
2013-09-08 16:54:00,60.7,56.0,30.10,North,11,0.0,-999.0,85,-99.99,,,0.01,weatherlink.com 1.10,2013-09-08 20:54:00,
2013-09-08 17:09:00,60.5,56.0,30.09,ENE,63,2.0,-999.0,85,-99.99,,,0.01,weatherlink.com 1.10,2013-09-08 21:09:00,
2013-09-08 17:24:00,60.5,56.0,30.09,ESE,105,1.0,-999.0,85,-99.99,,,0.01,weatherlink.com 1.10,2013-09-08 21:24:00,
2013-09-08 17:39:00,60.6,56.0,30.08,ENE,58,0.0,-999.0,84,-99.99,,,0.01,weatherlink.com 1.10,2013-09-08 21:39:00,
2013-09-08 17:54:00,60.5,56.0,30.07,ENE,63,0.0,-999.0,85,-99.99,,,0.01,weatherlink.com 1.10,2013-09-08 21:54:00,
2013-09-08 18:09:00,60.5,56.0,30.07,ENE,63,1.0,-999.0,86,-99.99,,,0.01,weatherlink.com 1.10,2013-09-08 22:09:00,
2013-09-08 18:24:00,60.5,56.0,30.06,ENE,63,0.0,-999.0,86,-99.99,,,0.01,weatherlink.com 1.10,2013-09-08 22:24:00,
2013-09-08 18:39:00,60.4,56.0,30.06,ENE,63,0.0,-999.0,86,-99.99,,,0.01,weatherlink.com 1.10,2013-09-08 22:39:00,
2013-09-08 18:54:00,59.9,56.0,30.05,ENE,63,0.0,-999.0,88,-99.99,,,0.01,weatherlink.com 1.10,2013-09-08 22:54:00,
2013-09-08 19:09:00,59.2,56.0,30.05,ENE,63,0.0,-999.0,89,-99.99,,,0.01,weatherlink.com 1.10,2013-09-08 23:09:00,
2013-09-08 19:24:00,58.7,56.0,30.05,ENE,63,0.0,-999.0,90,-99.99,,,0.01,weatherlink.com 1.10,2013-09-08 23:24:00,
2013-09-08 19:39:00,58.2,56.0,30.04,ENE,63,0.0,-999.0,91,-99.99,,,0.01,weatherlink.com 1.10,2013-09-08 23:39:00,
2013-09-08 19:54:00,57.7,55.0,30.04,ENE,63,0.0,-999.0,91,-99.99,,,0.01,weatherlink.com 1.10,2013-09-08 23:54:00,
2013-09-08 20:09:00,57.2,55.0,30.03,ENE,63,0.0,-999.0,91,-99.99,,,0.01,weatherlink.com 1.10,2013-09-09 00:09:00,
2013-09-08 20:24:00,56.6,54.0,30.03,ENE,63,0.0,-999.0,91,-99.99,,,0.01,weatherlink.com 1.10,2013-09-09 00:24:00,
2013-09-08 20:39:00,55.8,53.0,30.03,ENE,63,0.0,-999.0,91,-99.99,,,0.01,weatherlink.com 1.10,2013-09-09 00:39:00,
2013-09-08 20:54:00,55.2,53.0,30.03,ENE,63,0.0,-999.0,92,-99.99,,,0.01,weatherlink.com 1.10,2013-09-09 00:54:00,
2013-09-08 21:09:00,54.6,52.0,30.03,ENE,63,0.0,-999.0,92,-99.99,,,0.01,weatherlink.com 1.10,2013-09-09 01:09:00,
2013-09-08 21:24:00,54.2,52.0,30.04,ENE,63,0.0,-999.0,93,-99.99,,,0.01,weatherlink.com 1.10,2013-09-09 01:24:00,
2013-09-08 21:39:00,54.4,53.0,30.03,ENE,63,0.0,-999.0,93,-99.99,,,0.01,weatherlink.com 1.10,2013-09-09 01:39:00,
2013-09-08 21:54:00,54.7,53.0,30.03,ENE,66,2.0,-999.0,93,-99.99,,,0.01,weatherlink.com 1.10,2013-09-09 01:54:00,
2013-09-08 22:09:00,55.4,53.0,30.03,ENE,66,0.0,-999.0,92,-99.99,,,0.01,weatherlink.com 1.10,2013-09-09 02:09:00,
2013-09-08 22:24:00,56.3,53.0,30.03,South,180,1.0,-999.0,88,-99.99,,,0.01,weatherlink.com 1.10,2013-09-09 02:24:00,
2013-09-08 22:39:00,56.5,53.0,30.02,South,180,0.0,-999.0,88,-99.99,,,0.01,weatherlink.com 1.10,2013-09-09 02:39:00,
2013-09-08 22:54:00,56.4,53.0,30.02,South,180,0.0,-999.0,87,-99.99,,,0.01,weatherlink.com 1.10,2013-09-09 02:54:00,
2013-09-08 23:09:00,56.0,52.0,30.02,South,180,0.0,-999.0,87,-99.99,,,0.01,weatherlink.com 1.10,2013-09-09 03:09:00,
2013-09-08 23:24:00,55.9,52.0,30.02,South,180,0.0,-999.0,87,-99.99,,,0.01,weatherlink.com 1.10,2013-09-09 03:24:00,
2013-09-08 23:39:00,55.8,52.0,30.03,South,179,0.0,-999.0,87,-99.99,,,0.01,weatherlink.com 1.10,2013-09-09 03:39:00,
2013-09-08 23:54:00,55.7,52.0,30.02,South,180,0.0,-999.0,87,-99.99,,,0.01,weatherlink.com 1.10,2013-09-09 03:54:00,